sensor_id;sensor_type;location;lat;lon;timestamp;P1;durP1;ratioP1;P2;durP2;ratioP2
23181;SDS011;11759;51.282;6.642;2022-09-11T00:01:05;173.15;;;41.80;;
23181;SDS011;11759;51.282;6.642;2022-09-11T00:03:33;144.70;;;41.38;;
23181;SDS011;11759;51.282;6.642;2022-09-11T00:06:03;153.85;;;41.35;;
23181;SDS011;11759;51.282;6.642;2022-09-11T00:08:31;185.43;;;43.47;;
23181;SDS011;11759;51.282;6.642;2022-09-11T00:13:45;204.48;;;44.05;;
23181;SDS011;11759;51.282;6.642;2022-09-11T00:16:20;148.32;;;43.88;;
23181;SDS011;11759;51.282;6.642;2022-09-11T00:18:56;177.32;;;42.83;;
23181;SDS011;11759;51.282;6.642;2022-09-11T00:21:23;217.50;;;45.53;;
23181;SDS011;11759;51.282;6.642;2022-09-11T00:23:50;195.95;;;44.00;;
23181;SDS011;11759;51.282;6.642;2022-09-11T00:26:19;154.07;;;42.30;;
23181;SDS011;11759;51.282;6.642;2022-09-11T00:28:46;255.30;;;46.25;;
23181;SDS011;11759;51.282;6.642;2022-09-11T00:31:14;181.63;;;43.60;;
23181;SDS011;11759;51.282;6.642;2022-09-11T00:33:42;201.00;;;43.35;;
23181;SDS011;11759;51.282;6.642;2022-09-11T00:36:14;158.02;;;46.00;;
23181;SDS011;11759;51.282;6.642;2022-09-11T00:38:41;230.40;;;45.78;;
23181;SDS011;11759;51.282;6.642;2022-09-11T00:41:12;218.88;;;45.75;;
23181;SDS011;11759;51.282;6.642;2022-09-11T00:43:51;216.40;;;45.65;;
23181;SDS011;11759;51.282;6.642;2022-09-11T00:46:18;183.90;;;45.70;;
23181;SDS011;11759;51.282;6.642;2022-09-11T00:48:46;203.93;;;45.95;;
23181;SDS011;11759;51.282;6.642;2022-09-11T00:51:25;190.80;;;47.58;;
23181;SDS011;11759;51.282;6.642;2022-09-11T00:53:55;216.15;;;50.22;;
23181;SDS011;11759;51.282;6.642;2022-09-11T00:56:22;204.70;;;51.45;;
23181;SDS011;11759;51.282;6.642;2022-09-11T01:01:20;259.20;;;51.88;;
23181;SDS011;11759;51.282;6.642;2022-09-11T01:03:47;240.55;;;49.58;;
23181;SDS011;11759;51.282;6.642;2022-09-11T01:06:14;221.02;;;50.83;;
23181;SDS011;11759;51.282;6.642;2022-09-11T01:08:41;260.90;;;52.05;;
23181;SDS011;11759;51.282;6.642;2022-09-11T01:13:43;203.93;;;52.00;;
23181;SDS011;11759;51.282;6.642;2022-09-11T01:16:47;178.93;;;48.42;;
23181;SDS011;11759;51.282;6.642;2022-09-11T01:20:18;245.43;;;52.15;;
23181;SDS011;11759;51.282;6.642;2022-09-11T01:27:50;217.70;;;51.10;;
23181;SDS011;11759;51.282;6.642;2022-09-11T01:30:18;271.23;;;56.17;;
23181;SDS011;11759;51.282;6.642;2022-09-11T01:36:26;219.32;;;52.63;;
23181;SDS011;11759;51.282;6.642;2022-09-11T01:38:57;224.90;;;56.40;;
23181;SDS011;11759;51.282;6.642;2022-09-11T01:41:42;236.45;;;55.92;;
23181;SDS011;11759;51.282;6.642;2022-09-11T01:44:16;279.45;;;54.67;;
23181;SDS011;11759;51.282;6.642;2022-09-11T01:46:45;266.35;;;56.65;;
23181;SDS011;11759;51.282;6.642;2022-09-11T01:49:16;267.00;;;55.58;;
23181;SDS011;11759;51.282;6.642;2022-09-11T01:51:44;211.40;;;55.25;;
23181;SDS011;11759;51.282;6.642;2022-09-11T01:54:14;307.33;;;57.85;;
23181;SDS011;11759;51.282;6.642;2022-09-11T01:56:45;213.45;;;55.40;;
23181;SDS011;11759;51.282;6.642;2022-09-11T01:59:15;264.73;;;56.72;;
23181;SDS011;11759;51.282;6.642;2022-09-11T02:01:44;192.88;;;51.35;;
23181;SDS011;11759;51.282;6.642;2022-09-11T02:04:26;220.65;;;55.15;;
23181;SDS011;11759;51.282;6.642;2022-09-11T02:07:04;237.23;;;54.45;;
23181;SDS011;11759;51.282;6.642;2022-09-11T02:09:35;233.18;;;55.25;;
23181;SDS011;11759;51.282;6.642;2022-09-11T02:12:06;241.65;;;57.53;;
23181;SDS011;11759;51.282;6.642;2022-09-11T02:14:37;223.37;;;56.60;;
23181;SDS011;11759;51.282;6.642;2022-09-11T02:17:14;234.48;;;55.85;;
23181;SDS011;11759;51.282;6.642;2022-09-11T02:19:57;236.75;;;55.78;;
23181;SDS011;11759;51.282;6.642;2022-09-11T02:22:25;248.02;;;57.78;;
23181;SDS011;11759;51.282;6.642;2022-09-11T02:24:52;278.70;;;58.63;;
23181;SDS011;11759;51.282;6.642;2022-09-11T02:27:23;221.70;;;57.03;;
23181;SDS011;11759;51.282;6.642;2022-09-11T02:29:50;260.80;;;56.17;;
23181;SDS011;11759;51.282;6.642;2022-09-11T02:32:20;240.85;;;56.05;;
23181;SDS011;11759;51.282;6.642;2022-09-11T02:34:47;249.88;;;56.55;;
23181;SDS011;11759;51.282;6.642;2022-09-11T02:40:35;278.33;;;55.70;;
23181;SDS011;11759;51.282;6.642;2022-09-11T02:43:31;245.63;;;55.38;;
23181;SDS011;11759;51.282;6.642;2022-09-11T02:54:23;249.60;;;56.55;;
23181;SDS011;11759;51.282;6.642;2022-09-11T02:57:10;257.88;;;54.85;;
23181;SDS011;11759;51.282;6.642;2022-09-11T02:59:42;255.38;;;58.75;;
23181;SDS011;11759;51.282;6.642;2022-09-11T03:02:12;347.73;;;59.45;;
23181;SDS011;11759;51.282;6.642;2022-09-11T03:04:40;258.02;;;61.15;;
23181;SDS011;11759;51.282;6.642;2022-09-11T03:07:07;284.42;;;57.03;;
23181;SDS011;11759;51.282;6.642;2022-09-11T03:09:36;260.48;;;59.47;;
23181;SDS011;11759;51.282;6.642;2022-09-11T03:12:08;262.20;;;58.60;;
23181;SDS011;11759;51.282;6.642;2022-09-11T03:14:36;280.52;;;60.15;;
23181;SDS011;11759;51.282;6.642;2022-09-11T03:17:04;269.25;;;59.10;;
23181;SDS011;11759;51.282;6.642;2022-09-11T03:19:32;277.40;;;58.10;;
23181;SDS011;11759;51.282;6.642;2022-09-11T03:21:59;284.55;;;62.67;;
23181;SDS011;11759;51.282;6.642;2022-09-11T03:24:25;285.15;;;60.08;;
23181;SDS011;11759;51.282;6.642;2022-09-11T03:26:52;273.35;;;61.40;;
23181;SDS011;11759;51.282;6.642;2022-09-11T03:29:18;251.32;;;58.60;;
23181;SDS011;11759;51.282;6.642;2022-09-11T03:31:45;297.15;;;59.92;;
23181;SDS011;11759;51.282;6.642;2022-09-11T03:34:12;254.95;;;58.88;;
23181;SDS011;11759;51.282;6.642;2022-09-11T03:36:39;316.42;;;62.95;;
23181;SDS011;11759;51.282;6.642;2022-09-11T03:39:06;305.63;;;64.55;;
23181;SDS011;11759;51.282;6.642;2022-09-11T03:41:32;357.02;;;62.35;;
23181;SDS011;11759;51.282;6.642;2022-09-11T03:43:59;378.40;;;64.75;;
23181;SDS011;11759;51.282;6.642;2022-09-11T03:46:27;268.63;;;59.63;;
23181;SDS011;11759;51.282;6.642;2022-09-11T03:48:54;311.63;;;62.70;;
23181;SDS011;11759;51.282;6.642;2022-09-11T03:51:20;272.70;;;60.60;;
23181;SDS011;11759;51.282;6.642;2022-09-11T03:53:47;292.52;;;62.10;;
23181;SDS011;11759;51.282;6.642;2022-09-11T03:56:14;299.73;;;62.28;;
23181;SDS011;11759;51.282;6.642;2022-09-11T03:58:45;281.30;;;64.07;;
23181;SDS011;11759;51.282;6.642;2022-09-11T04:01:13;306.40;;;60.95;;
23181;SDS011;11759;51.282;6.642;2022-09-11T04:03:41;313.95;;;62.38;;
23181;SDS011;11759;51.282;6.642;2022-09-11T04:06:14;302.35;;;61.58;;
23181;SDS011;11759;51.282;6.642;2022-09-11T04:08:42;357.05;;;63.08;;
23181;SDS011;11759;51.282;6.642;2022-09-11T04:11:09;355.45;;;62.72;;
23181;SDS011;11759;51.282;6.642;2022-09-11T04:13:39;347.02;;;62.30;;
23181;SDS011;11759;51.282;6.642;2022-09-11T04:16:11;289.75;;;61.20;;
23181;SDS011;11759;51.282;6.642;2022-09-11T04:18:45;280.77;;;59.65;;
23181;SDS011;11759;51.282;6.642;2022-09-11T04:21:14;346.63;;;64.70;;
23181;SDS011;11759;51.282;6.642;2022-09-11T04:23:43;321.30;;;61.90;;
23181;SDS011;11759;51.282;6.642;2022-09-11T04:26:11;276.08;;;59.17;;
23181;SDS011;11759;51.282;6.642;2022-09-11T04:28:49;379.58;;;62.13;;
23181;SDS011;11759;51.282;6.642;2022-09-11T04:31:16;329.33;;;61.38;;
23181;SDS011;11759;51.282;6.642;2022-09-11T04:33:45;319.13;;;62.05;;
23181;SDS011;11759;51.282;6.642;2022-09-11T04:36:16;310.92;;;61.35;;
23181;SDS011;11759;51.282;6.642;2022-09-11T04:41:11;363.50;;;61.03;;
23181;SDS011;11759;51.282;6.642;2022-09-11T04:43:39;287.67;;;58.17;;
23181;SDS011;11759;51.282;6.642;2022-09-11T04:48:44;327.27;;;60.92;;
23181;SDS011;11759;51.282;6.642;2022-09-11T04:51:20;295.45;;;60.33;;
23181;SDS011;11759;51.282;6.642;2022-09-11T04:53:49;270.80;;;60.05;;
23181;SDS011;11759;51.282;6.642;2022-09-11T04:56:18;330.95;;;62.55;;
23181;SDS011;11759;51.282;6.642;2022-09-11T04:58:51;323.52;;;60.00;;
23181;SDS011;11759;51.282;6.642;2022-09-11T05:01:23;300.52;;;61.17;;
23181;SDS011;11759;51.282;6.642;2022-09-11T05:03:54;301.98;;;62.58;;
23181;SDS011;11759;51.282;6.642;2022-09-11T05:06:21;315.80;;;62.55;;
23181;SDS011;11759;51.282;6.642;2022-09-11T05:08:48;399.92;;;63.67;;
23181;SDS011;11759;51.282;6.642;2022-09-11T05:11:17;417.05;;;63.95;;
23181;SDS011;11759;51.282;6.642;2022-09-11T05:13:46;376.90;;;60.15;;
23181;SDS011;11759;51.282;6.642;2022-09-11T05:16:14;353.42;;;61.55;;
23181;SDS011;11759;51.282;6.642;2022-09-11T05:18:43;353.77;;;60.92;;
23181;SDS011;11759;51.282;6.642;2022-09-11T05:21:15;395.20;;;62.28;;
23181;SDS011;11759;51.282;6.642;2022-09-11T05:23:48;397.02;;;62.45;;
23181;SDS011;11759;51.282;6.642;2022-09-11T05:26:19;371.73;;;60.05;;
23181;SDS011;11759;51.282;6.642;2022-09-11T05:29:01;510.23;;;62.17;;
23181;SDS011;11759;51.282;6.642;2022-09-11T05:31:51;530.63;;;66.68;;
23181;SDS011;11759;51.282;6.642;2022-09-11T05:34:19;378.73;;;62.63;;
23181;SDS011;11759;51.282;6.642;2022-09-11T05:36:47;388.00;;;60.78;;
23181;SDS011;11759;51.282;6.642;2022-09-11T05:39:13;348.77;;;60.78;;
23181;SDS011;11759;51.282;6.642;2022-09-11T05:41:40;271.73;;;56.70;;
23181;SDS011;11759;51.282;6.642;2022-09-11T05:44:07;389.45;;;60.03;;
23181;SDS011;11759;51.282;6.642;2022-09-11T05:46:36;575.63;;;66.18;;
23181;SDS011;11759;51.282;6.642;2022-09-11T05:49:04;300.65;;;58.30;;
23181;SDS011;11759;51.282;6.642;2022-09-11T05:51:30;309.65;;;58.92;;
23181;SDS011;11759;51.282;6.642;2022-09-11T05:54:01;284.13;;;55.05;;
23181;SDS011;11759;51.282;6.642;2022-09-11T05:56:30;358.90;;;56.08;;
23181;SDS011;11759;51.282;6.642;2022-09-11T05:59:01;223.60;;;54.00;;
23181;SDS011;11759;51.282;6.642;2022-09-11T06:01:34;273.10;;;55.05;;
23181;SDS011;11759;51.282;6.642;2022-09-11T06:04:12;264.85;;;54.53;;
23181;SDS011;11759;51.282;6.642;2022-09-11T06:06:42;314.75;;;58.22;;
23181;SDS011;11759;51.282;6.642;2022-09-11T06:09:09;311.42;;;57.53;;
23181;SDS011;11759;51.282;6.642;2022-09-11T06:11:35;526.67;;;60.25;;
23181;SDS011;11759;51.282;6.642;2022-09-11T06:14:02;319.13;;;56.50;;
23181;SDS011;11759;51.282;6.642;2022-09-11T06:16:29;250.73;;;55.45;;
23181;SDS011;11759;51.282;6.642;2022-09-11T06:19:02;291.92;;;54.50;;
23181;SDS011;11759;51.282;6.642;2022-09-11T06:21:30;411.48;;;56.42;;
23181;SDS011;11759;51.282;6.642;2022-09-11T06:24:04;317.38;;;53.67;;
23181;SDS011;11759;51.282;6.642;2022-09-11T06:26:33;265.85;;;53.25;;
23181;SDS011;11759;51.282;6.642;2022-09-11T06:29:01;369.58;;;55.63;;
23181;SDS011;11759;51.282;6.642;2022-09-11T06:31:29;297.17;;;52.90;;
23181;SDS011;11759;51.282;6.642;2022-09-11T06:33:56;250.32;;;52.28;;
23181;SDS011;11759;51.282;6.642;2022-09-11T06:36:23;212.98;;;48.17;;
23181;SDS011;11759;51.282;6.642;2022-09-11T06:38:56;257.02;;;51.85;;
23181;SDS011;11759;51.282;6.642;2022-09-11T06:41:26;354.67;;;50.92;;
23181;SDS011;11759;51.282;6.642;2022-09-11T06:44:01;277.65;;;47.97;;
23181;SDS011;11759;51.282;6.642;2022-09-11T06:46:29;303.10;;;48.80;;
23181;SDS011;11759;51.282;6.642;2022-09-11T06:48:58;250.10;;;48.10;;
23181;SDS011;11759;51.282;6.642;2022-09-11T06:51:27;167.82;;;46.72;;
23181;SDS011;11759;51.282;6.642;2022-09-11T06:53:56;259.48;;;48.70;;
23181;SDS011;11759;51.282;6.642;2022-09-11T06:56:28;172.90;;;44.97;;
23181;SDS011;11759;51.282;6.642;2022-09-11T06:58:58;262.85;;;48.20;;
23181;SDS011;11759;51.282;6.642;2022-09-11T07:01:27;220.18;;;48.55;;
23181;SDS011;11759;51.282;6.642;2022-09-11T07:03:58;214.13;;;48.72;;
23181;SDS011;11759;51.282;6.642;2022-09-11T07:06:28;207.98;;;47.70;;
23181;SDS011;11759;51.282;6.642;2022-09-11T07:09:00;178.95;;;47.05;;
23181;SDS011;11759;51.282;6.642;2022-09-11T07:11:40;208.80;;;48.42;;
23181;SDS011;11759;51.282;6.642;2022-09-11T07:14:10;245.57;;;49.50;;
23181;SDS011;11759;51.282;6.642;2022-09-11T07:16:39;238.45;;;47.58;;
23181;SDS011;11759;51.282;6.642;2022-09-11T07:19:10;187.43;;;46.87;;
23181;SDS011;11759;51.282;6.642;2022-09-11T07:21:38;200.77;;;50.45;;
23181;SDS011;11759;51.282;6.642;2022-09-11T07:24:05;222.63;;;50.03;;
23181;SDS011;11759;51.282;6.642;2022-09-11T07:26:36;159.50;;;47.33;;
23181;SDS011;11759;51.282;6.642;2022-09-11T07:29:09;179.50;;;47.40;;
23181;SDS011;11759;51.282;6.642;2022-09-11T07:31:37;219.48;;;48.65;;
23181;SDS011;11759;51.282;6.642;2022-09-11T07:34:05;265.08;;;52.00;;
23181;SDS011;11759;51.282;6.642;2022-09-11T07:36:33;207.48;;;48.00;;
23181;SDS011;11759;51.282;6.642;2022-09-11T07:39:04;198.20;;;48.53;;
23181;SDS011;11759;51.282;6.642;2022-09-11T07:41:43;201.65;;;48.30;;
23181;SDS011;11759;51.282;6.642;2022-09-11T07:44:15;210.10;;;46.85;;
23181;SDS011;11759;51.282;6.642;2022-09-11T07:46:43;212.75;;;48.90;;
23181;SDS011;11759;51.282;6.642;2022-09-11T07:49:11;174.20;;;46.88;;
23181;SDS011;11759;51.282;6.642;2022-09-11T07:51:40;202.32;;;48.08;;
23181;SDS011;11759;51.282;6.642;2022-09-11T07:54:08;179.98;;;47.80;;
23181;SDS011;11759;51.282;6.642;2022-09-11T07:56:37;201.65;;;49.85;;
23181;SDS011;11759;51.282;6.642;2022-09-11T07:59:06;184.57;;;47.05;;
23181;SDS011;11759;51.282;6.642;2022-09-11T08:01:36;184.02;;;48.58;;
23181;SDS011;11759;51.282;6.642;2022-09-11T08:04:05;179.77;;;45.67;;
23181;SDS011;11759;51.282;6.642;2022-09-11T08:06:34;213.55;;;48.30;;
23181;SDS011;11759;51.282;6.642;2022-09-11T08:09:05;196.27;;;46.40;;
23181;SDS011;11759;51.282;6.642;2022-09-11T08:11:39;195.95;;;47.17;;
23181;SDS011;11759;51.282;6.642;2022-09-11T08:14:08;193.40;;;46.38;;
23181;SDS011;11759;51.282;6.642;2022-09-11T08:16:39;216.93;;;47.87;;
23181;SDS011;11759;51.282;6.642;2022-09-11T08:19:08;153.55;;;44.15;;
23181;SDS011;11759;51.282;6.642;2022-09-11T08:21:35;152.00;;;43.30;;
23181;SDS011;11759;51.282;6.642;2022-09-11T08:24:03;200.15;;;45.00;;
23181;SDS011;11759;51.282;6.642;2022-09-11T08:26:30;168.90;;;43.90;;
23181;SDS011;11759;51.282;6.642;2022-09-11T08:28:57;164.73;;;45.03;;
23181;SDS011;11759;51.282;6.642;2022-09-11T08:33:57;180.63;;;44.90;;
23181;SDS011;11759;51.282;6.642;2022-09-11T08:36:25;193.45;;;45.08;;
23181;SDS011;11759;51.282;6.642;2022-09-11T08:38:52;192.93;;;45.72;;
23181;SDS011;11759;51.282;6.642;2022-09-11T08:41:35;143.90;;;43.60;;
23181;SDS011;11759;51.282;6.642;2022-09-11T08:44:22;142.48;;;44.42;;
23181;SDS011;11759;51.282;6.642;2022-09-11T08:46:58;164.35;;;45.53;;
23181;SDS011;11759;51.282;6.642;2022-09-11T08:52:03;147.23;;;44.58;;
23181;SDS011;11759;51.282;6.642;2022-09-11T08:54:36;120.35;;;43.08;;
23181;SDS011;11759;51.282;6.642;2022-09-11T08:57:27;134.60;;;42.13;;
23181;SDS011;11759;51.282;6.642;2022-09-11T09:00:15;134.65;;;43.20;;
23181;SDS011;11759;51.282;6.642;2022-09-11T09:08:45;129.88;;;43.60;;
23181;SDS011;11759;51.282;6.642;2022-09-11T09:15:00;133.45;;;41.83;;
23181;SDS011;11759;51.282;6.642;2022-09-11T09:17:17;125.28;;;43.08;;
23181;SDS011;11759;51.282;6.642;2022-09-11T09:19:50;124.35;;;43.15;;
23181;SDS011;11759;51.282;6.642;2022-09-11T09:22:48;113.07;;;42.38;;
23181;SDS011;11759;51.282;6.642;2022-09-11T09:25:20;114.32;;;40.58;;
23181;SDS011;11759;51.282;6.642;2022-09-11T09:27:52;113.78;;;40.75;;
23181;SDS011;11759;51.282;6.642;2022-09-11T09:30:27;118.57;;;41.78;;
23181;SDS011;11759;51.282;6.642;2022-09-11T09:33:00;119.45;;;40.47;;
23181;SDS011;11759;51.282;6.642;2022-09-11T09:35:41;99.72;;;40.00;;
23181;SDS011;11759;51.282;6.642;2022-09-11T09:38:15;104.95;;;39.45;;
23181;SDS011;11759;51.282;6.642;2022-09-11T09:44:02;124.03;;;41.38;;
23181;SDS011;11759;51.282;6.642;2022-09-11T09:46:41;109.55;;;41.33;;
23181;SDS011;11759;51.282;6.642;2022-09-11T09:49:16;117.85;;;42.80;;
23181;SDS011;11759;51.282;6.642;2022-09-11T09:51:55;102.65;;;40.45;;
23181;SDS011;11759;51.282;6.642;2022-09-11T09:54:29;100.75;;;39.50;;
23181;SDS011;11759;51.282;6.642;2022-09-11T09:57:00;123.50;;;41.80;;
23181;SDS011;11759;51.282;6.642;2022-09-11T09:59:36;111.00;;;40.22;;
23181;SDS011;11759;51.282;6.642;2022-09-11T10:02:06;117.40;;;41.08;;
23181;SDS011;11759;51.282;6.642;2022-09-11T10:04:33;102.35;;;42.40;;
23181;SDS011;11759;51.282;6.642;2022-09-11T10:07:06;128.52;;;43.10;;
23181;SDS011;11759;51.282;6.642;2022-09-11T10:09:46;114.35;;;41.75;;
23181;SDS011;11759;51.282;6.642;2022-09-11T10:12:22;118.82;;;43.13;;
23181;SDS011;11759;51.282;6.642;2022-09-11T10:14:51;119.03;;;43.60;;
23181;SDS011;11759;51.282;6.642;2022-09-11T10:23:22;99.05;;;40.00;;
23181;SDS011;11759;51.282;6.642;2022-09-11T10:25:49;95.25;;;39.53;;
23181;SDS011;11759;51.282;6.642;2022-09-11T10:28:17;93.95;;;40.53;;
23181;SDS011;11759;51.282;6.642;2022-09-11T10:30:59;87.85;;;38.45;;
23181;SDS011;11759;51.282;6.642;2022-09-11T10:33:28;83.05;;;37.95;;
23181;SDS011;11759;51.282;6.642;2022-09-11T10:35:56;86.72;;;38.95;;
23181;SDS011;11759;51.282;6.642;2022-09-11T10:40:55;84.03;;;36.95;;
23181;SDS011;11759;51.282;6.642;2022-09-11T10:44:00;81.32;;;37.75;;
23181;SDS011;11759;51.282;6.642;2022-09-11T10:46:42;79.82;;;36.58;;
23181;SDS011;11759;51.282;6.642;2022-09-11T10:51:37;89.20;;;37.88;;
23181;SDS011;11759;51.282;6.642;2022-09-11T10:59:23;78.53;;;38.17;;
23181;SDS011;11759;51.282;6.642;2022-09-11T11:01:56;80.80;;;36.13;;
23181;SDS011;11759;51.282;6.642;2022-09-11T11:04:23;77.20;;;36.63;;
23181;SDS011;11759;51.282;6.642;2022-09-11T11:07:07;71.70;;;36.17;;
23181;SDS011;11759;51.282;6.642;2022-09-11T11:12:26;60.80;;;33.42;;
23181;SDS011;11759;51.282;6.642;2022-09-11T11:15:18;64.93;;;33.03;;
23181;SDS011;11759;51.282;6.642;2022-09-11T11:20:45;58.08;;;31.77;;
23181;SDS011;11759;51.282;6.642;2022-09-11T11:26:05;58.33;;;30.83;;
23181;SDS011;11759;51.282;6.642;2022-09-11T11:39:25;37.90;;;23.45;;
23181;SDS011;11759;51.282;6.642;2022-09-11T11:42:12;37.38;;;23.65;;
23181;SDS011;11759;51.282;6.642;2022-09-11T11:44:50;35.97;;;23.50;;
23181;SDS011;11759;51.282;6.642;2022-09-11T11:47:20;39.45;;;24.90;;
23181;SDS011;11759;51.282;6.642;2022-09-11T11:52:59;41.95;;;24.80;;
23181;SDS011;11759;51.282;6.642;2022-09-11T11:55:45;46.00;;;25.80;;
23181;SDS011;11759;51.282;6.642;2022-09-11T12:00:55;43.90;;;27.27;;
23181;SDS011;11759;51.282;6.642;2022-09-11T12:03:26;42.38;;;25.13;;
23181;SDS011;11759;51.282;6.642;2022-09-11T12:06:02;43.88;;;25.63;;
23181;SDS011;11759;51.282;6.642;2022-09-11T12:08:30;41.35;;;25.77;;
23181;SDS011;11759;51.282;6.642;2022-09-11T12:11:06;43.50;;;26.17;;
23181;SDS011;11759;51.282;6.642;2022-09-11T12:13:34;40.08;;;25.50;;
23181;SDS011;11759;51.282;6.642;2022-09-11T12:16:13;42.30;;;26.27;;
23181;SDS011;11759;51.282;6.642;2022-09-11T12:19:01;40.05;;;24.65;;
23181;SDS011;11759;51.282;6.642;2022-09-11T12:21:34;36.20;;;23.53;;
23181;SDS011;11759;51.282;6.642;2022-09-11T12:26:28;30.83;;;19.48;;
23181;SDS011;11759;51.282;6.642;2022-09-11T12:34:19;32.58;;;21.05;;
23181;SDS011;11759;51.282;6.642;2022-09-11T12:36:53;28.20;;;18.90;;
23181;SDS011;11759;51.282;6.642;2022-09-11T12:39:30;29.92;;;18.30;;
23181;SDS011;11759;51.282;6.642;2022-09-11T12:47:21;25.60;;;16.45;;
23181;SDS011;11759;51.282;6.642;2022-09-11T12:50:04;24.25;;;14.90;;
23181;SDS011;11759;51.282;6.642;2022-09-11T12:52:38;21.67;;;12.60;;
23181;SDS011;11759;51.282;6.642;2022-09-11T12:57:53;25.73;;;15.95;;
23181;SDS011;11759;51.282;6.642;2022-09-11T13:00:21;23.67;;;15.15;;
23181;SDS011;11759;51.282;6.642;2022-09-11T13:02:53;21.70;;;14.70;;
23181;SDS011;11759;51.282;6.642;2022-09-11T13:08:04;23.52;;;13.00;;
23181;SDS011;11759;51.282;6.642;2022-09-11T13:10:34;23.58;;;12.93;;
23181;SDS011;11759;51.282;6.642;2022-09-11T13:13:36;16.95;;;10.77;;
23181;SDS011;11759;51.282;6.642;2022-09-11T13:18:44;21.65;;;11.95;;
23181;SDS011;11759;51.282;6.642;2022-09-11T13:21:11;20.63;;;12.90;;
23181;SDS011;11759;51.282;6.642;2022-09-11T13:23:40;21.05;;;13.45;;
23181;SDS011;11759;51.282;6.642;2022-09-11T13:26:43;21.30;;;12.85;;
23181;SDS011;11759;51.282;6.642;2022-09-11T13:29:02;19.60;;;12.35;;
23181;SDS011;11759;51.282;6.642;2022-09-11T13:31:35;19.95;;;12.88;;
23181;SDS011;11759;51.282;6.642;2022-09-11T13:34:04;21.02;;;14.05;;
23181;SDS011;11759;51.282;6.642;2022-09-11T13:36:33;22.13;;;12.50;;
23181;SDS011;11759;51.282;6.642;2022-09-11T13:39:00;23.38;;;13.15;;
23181;SDS011;11759;51.282;6.642;2022-09-11T13:41:28;19.90;;;12.65;;
23181;SDS011;11759;51.282;6.642;2022-09-11T13:43:58;20.70;;;12.23;;
23181;SDS011;11759;51.282;6.642;2022-09-11T13:46:26;18.65;;;13.15;;
23181;SDS011;11759;51.282;6.642;2022-09-11T13:51:38;24.77;;;15.60;;
23181;SDS011;11759;51.282;6.642;2022-09-11T13:54:10;26.27;;;15.77;;
23181;SDS011;11759;51.282;6.642;2022-09-11T13:56:41;20.95;;;13.85;;
23181;SDS011;11759;51.282;6.642;2022-09-11T14:04:52;21.38;;;14.68;;
23181;SDS011;11759;51.282;6.642;2022-09-11T14:07:26;23.83;;;15.25;;
23181;SDS011;11759;51.282;6.642;2022-09-11T14:10:01;21.98;;;14.15;;
23181;SDS011;11759;51.282;6.642;2022-09-11T14:12:31;24.02;;;15.18;;
23181;SDS011;11759;51.282;6.642;2022-09-11T14:14:59;28.52;;;16.52;;
23181;SDS011;11759;51.282;6.642;2022-09-11T14:17:32;23.08;;;14.55;;
23181;SDS011;11759;51.282;6.642;2022-09-11T14:19:59;24.38;;;13.98;;
23181;SDS011;11759;51.282;6.642;2022-09-11T14:22:29;25.48;;;14.85;;
23181;SDS011;11759;51.282;6.642;2022-09-11T14:25:10;25.20;;;14.57;;
23181;SDS011;11759;51.282;6.642;2022-09-11T14:27:44;24.02;;;14.35;;
23181;SDS011;11759;51.282;6.642;2022-09-11T14:35:39;27.70;;;14.63;;
23181;SDS011;11759;51.282;6.642;2022-09-11T14:38:07;23.98;;;14.45;;
23181;SDS011;11759;51.282;6.642;2022-09-11T14:40:34;24.98;;;14.75;;
23181;SDS011;11759;51.282;6.642;2022-09-11T14:43:01;25.45;;;14.20;;
23181;SDS011;11759;51.282;6.642;2022-09-11T14:45:29;19.48;;;13.63;;
23181;SDS011;11759;51.282;6.642;2022-09-11T14:47:56;20.70;;;13.10;;
23181;SDS011;11759;51.282;6.642;2022-09-11T14:50:23;21.58;;;13.20;;
23181;SDS011;11759;51.282;6.642;2022-09-11T14:52:50;20.17;;;13.00;;
23181;SDS011;11759;51.282;6.642;2022-09-11T14:55:18;24.15;;;14.35;;
23181;SDS011;11759;51.282;6.642;2022-09-11T14:57:44;22.98;;;13.77;;
23181;SDS011;11759;51.282;6.642;2022-09-11T15:00:12;23.52;;;13.57;;
23181;SDS011;11759;51.282;6.642;2022-09-11T15:02:40;18.48;;;12.40;;
23181;SDS011;11759;51.282;6.642;2022-09-11T15:05:13;20.85;;;12.85;;
23181;SDS011;11759;51.282;6.642;2022-09-11T15:07:41;21.08;;;12.52;;
23181;SDS011;11759;51.282;6.642;2022-09-11T15:10:11;19.35;;;12.80;;
23181;SDS011;11759;51.282;6.642;2022-09-11T15:12:38;22.85;;;13.13;;
23181;SDS011;11759;51.282;6.642;2022-09-11T15:15:05;24.13;;;12.55;;
23181;SDS011;11759;51.282;6.642;2022-09-11T15:17:32;21.90;;;12.60;;
23181;SDS011;11759;51.282;6.642;2022-09-11T15:20:00;21.13;;;12.52;;
23181;SDS011;11759;51.282;6.642;2022-09-11T15:22:28;19.75;;;12.00;;
23181;SDS011;11759;51.282;6.642;2022-09-11T15:24:56;23.63;;;12.55;;
23181;SDS011;11759;51.282;6.642;2022-09-11T15:27:24;19.30;;;11.88;;
23181;SDS011;11759;51.282;6.642;2022-09-11T15:29:50;21.00;;;11.82;;
23181;SDS011;11759;51.282;6.642;2022-09-11T15:32:17;19.33;;;11.77;;
23181;SDS011;11759;51.282;6.642;2022-09-11T15:34:45;19.42;;;12.32;;
23181;SDS011;11759;51.282;6.642;2022-09-11T15:37:12;22.80;;;13.18;;
23181;SDS011;11759;51.282;6.642;2022-09-11T15:39:41;22.52;;;14.13;;
23181;SDS011;11759;51.282;6.642;2022-09-11T15:42:08;23.55;;;13.25;;
23181;SDS011;11759;51.282;6.642;2022-09-11T15:44:35;20.17;;;12.85;;
23181;SDS011;11759;51.282;6.642;2022-09-11T15:47:02;20.95;;;12.63;;
23181;SDS011;11759;51.282;6.642;2022-09-11T15:49:32;21.13;;;12.23;;
23181;SDS011;11759;51.282;6.642;2022-09-11T15:52:04;20.13;;;12.02;;
23181;SDS011;11759;51.282;6.642;2022-09-11T15:54:31;22.85;;;11.93;;
23181;SDS011;11759;51.282;6.642;2022-09-11T15:56:57;19.13;;;11.75;;
23181;SDS011;11759;51.282;6.642;2022-09-11T15:59:24;18.02;;;10.93;;
23181;SDS011;11759;51.282;6.642;2022-09-11T16:01:50;19.30;;;11.50;;
23181;SDS011;11759;51.282;6.642;2022-09-11T16:04:17;19.10;;;11.32;;
23181;SDS011;11759;51.282;6.642;2022-09-11T16:06:46;21.48;;;12.00;;
23181;SDS011;11759;51.282;6.642;2022-09-11T16:09:17;20.10;;;12.35;;
23181;SDS011;11759;51.282;6.642;2022-09-11T16:11:45;19.88;;;12.52;;
23181;SDS011;11759;51.282;6.642;2022-09-11T16:14:16;21.57;;;13.50;;
23181;SDS011;11759;51.282;6.642;2022-09-11T16:16:44;20.25;;;12.77;;
23181;SDS011;11759;51.282;6.642;2022-09-11T16:19:13;24.77;;;13.73;;
23181;SDS011;11759;51.282;6.642;2022-09-11T16:21:40;20.27;;;12.70;;
23181;SDS011;11759;51.282;6.642;2022-09-11T16:24:07;18.45;;;11.95;;
23181;SDS011;11759;51.282;6.642;2022-09-11T16:26:35;20.25;;;11.93;;
23181;SDS011;11759;51.282;6.642;2022-09-11T16:29:06;21.38;;;13.00;;
23181;SDS011;11759;51.282;6.642;2022-09-11T16:31:34;22.33;;;13.10;;
23181;SDS011;11759;51.282;6.642;2022-09-11T16:34:01;20.83;;;12.48;;
23181;SDS011;11759;51.282;6.642;2022-09-11T16:36:29;17.50;;;11.90;;
23181;SDS011;11759;51.282;6.642;2022-09-11T16:38:59;19.52;;;12.18;;
23181;SDS011;11759;51.282;6.642;2022-09-11T16:41:26;21.00;;;13.40;;
23181;SDS011;11759;51.282;6.642;2022-09-11T16:43:52;20.50;;;12.40;;